sensor_id;sensor_type;location;lat;lon;timestamp;pressure;altitude;pressure_sealevel;temperature;humidity
7802;BME280;3945;48.952;9.506;2023-04-01T00:00:33;96559.88;;;9.57;80.54
7802;BME280;3945;48.952;9.506;2023-04-01T00:03:01;96562.22;;;9.59;80.30
7802;BME280;3945;48.952;9.506;2023-04-01T00:05:27;96572.59;;;9.55;80.88
7802;BME280;3945;48.952;9.506;2023-04-01T00:07:53;96564.63;;;9.55;81.13
7802;BME280;3945;48.952;9.506;2023-04-01T00:10:20;96558.78;;;9.53;81.02
7802;BME280;3945;48.952;9.506;2023-04-01T00:12:46;96562.25;;;9.54;81.41
7802;BME280;3945;48.952;9.506;2023-04-01T00:15:12;96561.44;;;9.53;80.59
7802;BME280;3945;48.952;9.506;2023-04-01T00:17:39;96566.50;;;9.55;80.73
7802;BME280;3945;48.952;9.506;2023-04-01T00:20:07;96568.63;;;9.53;81.26
7802;BME280;3945;48.952;9.506;2023-04-01T00:22:34;96562.00;;;9.50;81.22
7802;BME280;3945;48.952;9.506;2023-04-01T00:25:01;96560.16;;;9.51;81.91
7802;BME280;3945;48.952;9.506;2023-04-01T00:27:27;96565.16;;;9.52;81.51
7802;BME280;3945;48.952;9.506;2023-04-01T00:29:54;96565.16;;;9.52;81.35
7802;BME280;3945;48.952;9.506;2023-04-01T00:32:20;96563.84;;;9.55;81.81
7802;BME280;3945;48.952;9.506;2023-04-01T00:34:49;96558.53;;;9.55;81.36
7802;BME280;3945;48.952;9.506;2023-04-01T00:37:17;96561.19;;;9.50;81.39
7802;BME280;3945;48.952;9.506;2023-04-01T00:39:44;96563.56;;;9.51;81.54
7802;BME280;3945;48.952;9.506;2023-04-01T00:42:11;96562.81;;;9.51;82.13
7802;BME280;3945;48.952;9.506;2023-04-01T00:44:37;96565.72;;;9.49;82.17
7802;BME280;3945;48.952;9.506;2023-04-01T00:47:04;96558.53;;;9.50;82.00
7802;BME280;3945;48.952;9.506;2023-04-01T00:49:31;96570.75;;;9.51;82.20
7802;BME280;3945;48.952;9.506;2023-04-01T00:51:59;96563.84;;;9.50;82.13
7802;BME280;3945;48.952;9.506;2023-04-01T00:54:28;96564.13;;;9.48;82.24
7802;BME280;3945;48.952;9.506;2023-04-01T00:56:56;96565.19;;;9.47;82.87
7802;BME280;3945;48.952;9.506;2023-04-01T00:59:25;96575.56;;;9.44;82.76
7802;BME280;3945;48.952;9.506;2023-04-01T01:01:52;96573.94;;;9.48;82.26
7802;BME280;3945;48.952;9.506;2023-04-01T01:04:20;96573.13;;;9.47;82.21
7802;BME280;3945;48.952;9.506;2023-04-01T01:06:48;96576.84;;;9.46;83.06
7802;BME280;3945;48.952;9.506;2023-04-01T01:09:21;96561.19;;;9.50;82.75
7802;BME280;3945;48.952;9.506;2023-04-01T01:11:54;96569.16;;;9.45;82.35
7802;BME280;3945;48.952;9.506;2023-04-01T01:14:29;96557.22;;;9.47;82.61
7802;BME280;3945;48.952;9.506;2023-04-01T01:17:00;96550.03;;;9.48;83.00
7802;BME280;3945;48.952;9.506;2023-04-01T01:19:33;96563.31;;;9.48;83.33
7802;BME280;3945;48.952;9.506;2023-04-01T01:25:00;96549.25;;;9.47;83.07
7802;BME280;3945;48.952;9.506;2023-04-01T01:27:34;96543.94;;;9.42;83.97
7802;BME280;3945;48.952;9.506;2023-04-01T01:30:09;96548.19;;;9.43;83.93
7802;BME280;3945;48.952;9.506;2023-04-01T01:32:48;96553.50;;;9.43;83.68
7802;BME280;3945;48.952;9.506;2023-04-01T01:35:22;96551.91;;;9.42;84.07
7802;BME280;3945;48.952;9.506;2023-04-01T01:37:51;96555.38;;;9.43;84.11
7802;BME280;3945;48.952;9.506;2023-04-01T01:40:18;96556.94;;;9.38;84.06
7802;BME280;3945;48.952;9.506;2023-04-01T01:42:47;96558.53;;;9.39;84.43
7802;BME280;3945;48.952;9.506;2023-04-01T01:45:14;96558.81;;;9.38;84.11
7802;BME280;3945;48.952;9.506;2023-04-01T01:47:43;96548.44;;;9.36;84.87
7802;BME280;3945;48.952;9.506;2023-04-01T01:50:10;96559.06;;;9.31;84.54
7802;BME280;3945;48.952;9.506;2023-04-01T01:52:38;96540.50;;;9.31;84.51
7802;BME280;3945;48.952;9.506;2023-04-01T01:57:45;96542.09;;;9.32;85.11
7802;BME280;3945;48.952;9.506;2023-04-01T02:00:12;96534.13;;;9.32;84.67
7802;BME280;3945;48.952;9.506;2023-04-01T02:02:39;96541.81;;;9.34;84.10
7802;BME280;3945;48.952;9.506;2023-04-01T02:05:06;96544.22;;;9.35;83.84
7802;BME280;3945;48.952;9.506;2023-04-01T02:07:34;96544.22;;;9.35;83.63
7802;BME280;3945;48.952;9.506;2023-04-01T02:10:03;96559.63;;;9.33;84.56
7802;BME280;3945;48.952;9.506;2023-04-01T02:12:30;96551.09;;;9.36;85.53
7802;BME280;3945;48.952;9.506;2023-04-01T02:14:57;96545.28;;;9.34;85.87
7802;BME280;3945;48.952;9.506;2023-04-01T02:17:25;96556.44;;;9.26;86.92
7802;BME280;3945;48.952;9.506;2023-04-01T02:19:53;96548.75;;;9.20;87.59
7802;BME280;3945;48.952;9.506;2023-04-01T02:22:22;96569.19;;;9.14;89.35
7802;BME280;3945;48.952;9.506;2023-04-01T02:24:50;96564.66;;;9.10;90.34
7802;BME280;3945;48.952;9.506;2023-04-01T02:27:18;96553.25;;;9.04;90.77
7802;BME280;3945;48.952;9.506;2023-04-01T02:29:45;96548.44;;;8.96;91.29
7802;BME280;3945;48.952;9.506;2023-04-01T02:32:12;96550.84;;;8.92;90.73
7802;BME280;3945;48.952;9.506;2023-04-01T02:34:39;96565.44;;;8.90;90.48
7802;BME280;3945;48.952;9.506;2023-04-01T02:37:05;96570.19;;;8.88;91.27
7802;BME280;3945;48.952;9.506;2023-04-01T02:39:31;96559.06;;;8.86;91.05
7802;BME280;3945;48.952;9.506;2023-04-01T02:41:58;96568.09;;;8.85;90.53
7802;BME280;3945;48.952;9.506;2023-04-01T02:44:25;96563.56;;;8.85;91.05
7802;BME280;3945;48.952;9.506;2023-04-01T02:46:52;96555.88;;;8.84;91.39
7802;BME280;3945;48.952;9.506;2023-04-01T02:49:18;96555.06;;;8.83;90.97
7802;BME280;3945;48.952;9.506;2023-04-01T02:51:45;96551.13;;;8.86;90.62
7802;BME280;3945;48.952;9.506;2023-04-01T02:54:11;96558.53;;;8.89;89.17
7802;BME280;3945;48.952;9.506;2023-04-01T02:56:37;96559.59;;;8.88;88.88
7802;BME280;3945;48.952;9.506;2023-04-01T02:59:04;96555.34;;;8.87;89.52
7802;BME280;3945;48.952;9.506;2023-04-01T03:01:31;96563.28;;;8.87;88.77
7802;BME280;3945;48.952;9.506;2023-04-01T03:03:58;96562.50;;;8.86;89.62
7802;BME280;3945;48.952;9.506;2023-04-01T03:06:24;96557.19;;;8.86;89.01
7802;BME280;3945;48.952;9.506;2023-04-01T03:08:51;96562.22;;;8.88;88.89
7802;BME280;3945;48.952;9.506;2023-04-01T03:11:17;96567.53;;;8.88;89.47
7802;BME280;3945;48.952;9.506;2023-04-01T03:13:43;96564.88;;;8.88;89.10
7802;BME280;3945;48.952;9.506;2023-04-01T03:16:10;96576.28;;;8.88;88.96
7802;BME280;3945;48.952;9.506;2023-04-01T03:18:37;96576.03;;;8.85;88.99
7802;BME280;3945;48.952;9.506;2023-04-01T03:21:13;96582.41;;;8.84;89.36
7802;BME280;3945;48.952;9.506;2023-04-01T03:23:40;96566.75;;;8.82;88.85
7802;BME280;3945;48.952;9.506;2023-04-01T03:26:06;96567.78;;;8.81;89.30
7802;BME280;3945;48.952;9.506;2023-04-01T03:28:33;96572.84;;;8.78;88.61
7802;BME280;3945;48.952;9.506;2023-04-01T03:30:59;96559.59;;;8.78;88.11
7802;BME280;3945;48.952;9.506;2023-04-01T03:33:25;96572.84;;;8.78;88.17
7802;BME280;3945;48.952;9.506;2023-04-01T03:35:53;96579.75;;;8.79;87.60
7802;BME280;3945;48.952;9.506;2023-04-01T03:38:19;96565.69;;;8.78;87.45
7802;BME280;3945;48.952;9.506;2023-04-01T03:40:46;96560.63;;;8.77;86.96
7802;BME280;3945;48.952;9.506;2023-04-01T03:43:12;96572.31;;;8.76;87.04
7802;BME280;3945;48.952;9.506;2023-04-01T03:45:43;96566.19;;;8.75;86.27
7802;BME280;3945;48.952;9.506;2023-04-01T03:48:09;96566.44;;;8.74;87.02
7802;BME280;3945;48.952;9.506;2023-04-01T03:50:35;96570.69;;;8.75;86.01
7802;BME280;3945;48.952;9.506;2023-04-01T03:53:03;96570.97;;;8.73;87.24
7802;BME280;3945;48.952;9.506;2023-04-01T03:55:29;96563.25;;;8.72;87.68
7802;BME280;3945;48.952;9.506;2023-04-01T03:57:56;96565.41;;;8.70;86.93
7802;BME280;3945;48.952;9.506;2023-04-01T04:00:22;96566.72;;;8.67;86.38
7802;BME280;3945;48.952;9.506;2023-04-01T04:02:48;96568.81;;;8.65;86.21
7802;BME280;3945;48.952;9.506;2023-04-01T04:05:15;96569.34;;;8.62;85.84
7802;BME280;3945;48.952;9.506;2023-04-01T04:07:41;96556.34;;;8.60;85.17
7802;BME280;3945;48.952;9.506;2023-04-01T04:10:09;96554.22;;;8.57;85.59
7802;BME280;3945;48.952;9.506;2023-04-01T04:12:36;96553.97;;;8.59;85.67
7802;BME280;3945;48.952;9.506;2023-04-01T04:15:02;96555.31;;;8.61;85.33
7802;BME280;3945;48.952;9.506;2023-04-01T04:17:28;96553.97;;;8.59;85.81
7802;BME280;3945;48.952;9.506;2023-04-01T04:19:55;96560.84;;;8.60;85.88
7802;BME280;3945;48.952;9.506;2023-04-01T04:22:21;96557.94;;;8.61;84.94
7802;BME280;3945;48.952;9.506;2023-04-01T04:24:47;96551.84;;;8.61;85.10
7802;BME280;3945;48.952;9.506;2023-04-01T04:27:15;96555.84;;;8.64;84.30
7802;BME280;3945;48.952;9.506;2023-04-01T04:29:41;96551.59;;;8.63;84.36
7802;BME280;3945;48.952;9.506;2023-04-01T04:32:08;96556.66;;;8.64;83.72
7802;BME280;3945;48.952;9.506;2023-04-01T04:34:34;96555.56;;;8.65;83.61
7802;BME280;3945;48.952;9.506;2023-04-01T04:37:00;96554.50;;;8.66;84.13
7802;BME280;3945;48.952;9.506;2023-04-01T04:39:27;96555.84;;;8.69;83.44
7802;BME280;3945;48.952;9.506;2023-04-01T04:41:53;96556.66;;;8.69;83.10
7802;BME280;3945;48.952;9.506;2023-04-01T04:44:21;96558.75;;;8.72;83.63
7802;BME280;3945;48.952;9.506;2023-04-01T04:46:47;96556.91;;;8.73;82.48
7802;BME280;3945;48.952;9.506;2023-04-01T04:49:13;96563.81;;;8.74;82.24
7802;BME280;3945;48.952;9.506;2023-04-01T04:51:40;96561.41;;;8.72;83.62
7802;BME280;3945;48.952;9.506;2023-04-01T04:54:06;96558.75;;;8.72;83.30
7802;BME280;3945;48.952;9.506;2023-04-01T04:56:32;96554.00;;;8.69;83.51
7802;BME280;3945;48.952;9.506;2023-04-01T04:58:59;96549.50;;;8.70;82.17
7802;BME280;3945;48.952;9.506;2023-04-01T05:01:27;96546.84;;;8.70;82.68
7802;BME280;3945;48.952;9.506;2023-04-01T05:03:53;96539.13;;;8.68;82.33
7802;BME280;3945;48.952;9.506;2023-04-01T05:06:19;96537.78;;;8.66;82.04
7802;BME280;3945;48.952;9.506;2023-04-01T05:08:46;96536.47;;;8.63;82.45
7802;BME280;3945;48.952;9.506;2023-04-01T05:11:13;96541.25;;;8.61;83.11
7802;BME280;3945;48.952;9.506;2023-04-01T05:13:40;96551.31;;;8.59;82.83
7802;BME280;3945;48.952;9.506;2023-04-01T05:16:08;96546.25;;;8.57;83.08
7802;BME280;3945;48.952;9.506;2023-04-01T05:18:35;96546.25;;;8.57;83.02
7802;BME280;3945;48.952;9.506;2023-04-01T05:21:02;96547.84;;;8.58;82.82
7802;BME280;3945;48.952;9.506;2023-04-01T05:23:30;96545.22;;;8.58;83.07
7802;BME280;3945;48.952;9.506;2023-04-01T05:25:56;96555.28;;;8.56;83.22
7802;BME280;3945;48.952;9.506;2023-04-01T05:28:23;96544.16;;;8.54;83.91
7802;BME280;3945;48.952;9.506;2023-04-01T05:30:49;96545.19;;;8.53;83.35
7802;BME280;3945;48.952;9.506;2023-04-01T05:33:15;96543.09;;;8.55;83.03
7802;BME280;3945;48.952;9.506;2023-04-01T05:35:43;96551.31;;;8.59;83.31
7802;BME280;3945;48.952;9.506;2023-04-01T05:38:09;96545.22;;;8.58;82.79
7802;BME280;3945;48.952;9.506;2023-04-01T05:40:36;96551.06;;;8.60;83.09
7802;BME280;3945;48.952;9.506;2023-04-01T05:43:02;96551.06;;;8.60;83.35
7802;BME280;3945;48.952;9.506;2023-04-01T05:45:28;96548.16;;;8.62;83.49
7802;BME280;3945;48.952;9.506;2023-04-01T05:47:54;96549.44;;;8.65;83.44
7802;BME280;3945;48.952;9.506;2023-04-01T05:50:21;96545.50;;;8.67;83.62
7802;BME280;3945;48.952;9.506;2023-04-01T05:52:48;96554.78;;;8.70;83.90
7802;BME280;3945;48.952;9.506;2023-04-01T05:55:15;96552.41;;;8.73;83.52
7802;BME280;3945;48.952;9.506;2023-04-01T05:57:41;96548.44;;;8.76;83.98
7802;BME280;3945;48.952;9.506;2023-04-01T06:00:08;96545.25;;;8.79;83.81
7802;BME280;3945;48.952;9.506;2023-04-01T06:02:34;96542.06;;;8.82;83.21
7802;BME280;3945;48.952;9.506;2023-04-01T06:05:03;96541.28;;;8.86;82.77
7802;BME280;3945;48.952;9.506;2023-04-01T06:07:37;96534.91;;;8.87;82.89
7802;BME280;3945;48.952;9.506;2023-04-01T06:10:08;96546.59;;;8.91;83.33
7802;BME280;3945;48.952;9.506;2023-04-01T06:12:39;96542.09;;;8.92;82.78
7802;BME280;3945;48.952;9.506;2023-04-01T06:15:11;96539.16;;;8.93;82.72
7802;BME280;3945;48.952;9.506;2023-04-01T06:17:56;96542.88;;;8.97;82.65
7802;BME280;3945;48.952;9.506;2023-04-01T06:20:29;96540.50;;;9.01;82.20
7802;BME280;3945;48.952;9.506;2023-04-01T06:23:12;96546.59;;;9.01;82.43
7802;BME280;3945;48.952;9.506;2023-04-01T06:25:47;96543.41;;;9.05;82.32
7802;BME280;3945;48.952;9.506;2023-04-01T06:28:30;96541.03;;;9.08;81.92
7802;BME280;3945;48.952;9.506;2023-04-01T06:31:02;96540.50;;;9.11;81.59
7802;BME280;3945;48.952;9.506;2023-04-01T06:33:34;96536.53;;;9.14;80.54
7802;BME280;3945;48.952;9.506;2023-04-01T06:36:17;96533.06;;;9.18;80.20
7802;BME280;3945;48.952;9.506;2023-04-01T06:39:03;96540.22;;;9.23;80.53
7802;BME280;3945;48.952;9.506;2023-04-01T06:41:49;96531.47;;;9.27;80.65
7802;BME280;3945;48.952;9.506;2023-04-01T06:44:20;96528.56;;;9.29;80.07
7802;BME280;3945;48.952;9.506;2023-04-01T06:46:51;96527.22;;;9.31;80.22
7802;BME280;3945;48.952;9.506;2023-04-01T06:49:29;96537.81;;;9.36;79.15
7802;BME280;3945;48.952;9.506;2023-04-01T06:51:58;96530.41;;;9.38;79.73
7802;BME280;3945;48.952;9.506;2023-04-01T06:54:27;96530.41;;;9.38;79.31
7802;BME280;3945;48.952;9.506;2023-04-01T06:56:59;96524.31;;;9.43;78.94
7802;BME280;3945;48.952;9.506;2023-04-01T06:59:27;96524.81;;;9.45;78.33
7802;BME280;3945;48.952;9.506;2023-04-01T07:01:54;96521.09;;;9.46;78.52
7802;BME280;3945;48.952;9.506;2023-04-01T07:04:22;96524.00;;;9.45;78.82
7802;BME280;3945;48.952;9.506;2023-04-01T07:06:52;96531.97;;;9.45;79.78
7802;BME280;3945;48.952;9.506;2023-04-01T07:09:20;96535.97;;;9.47;79.49
7802;BME280;3945;48.952;9.506;2023-04-01T07:11:48;96522.16;;;9.45;79.71
7802;BME280;3945;48.952;9.506;2023-04-01T07:14:19;96522.44;;;9.44;79.95
7802;BME280;3945;48.952;9.506;2023-04-01T07:16:48;96529.59;;;9.48;79.38
7802;BME280;3945;48.952;9.506;2023-04-01T07:19:18;96535.16;;;9.47;80.07
7802;BME280;3945;48.952;9.506;2023-04-01T07:21:47;96542.06;;;9.48;79.25
7802;BME280;3945;48.952;9.506;2023-04-01T07:24:16;96529.59;;;9.48;80.02
7802;BME280;3945;48.952;9.506;2023-04-01T07:26:46;96543.66;;;9.49;79.99
7802;BME280;3945;48.952;9.506;2023-04-01T07:29:13;96540.22;;;9.53;79.85
7802;BME280;3945;48.952;9.506;2023-04-01T07:31:45;96530.38;;;9.54;79.77
7802;BME280;3945;48.952;9.506;2023-04-01T07:34:17;96537.03;;;9.56;79.48
7802;BME280;3945;48.952;9.506;2023-04-01T07:36:46;96542.84;;;9.58;79.96
7802;BME280;3945;48.952;9.506;2023-04-01T07:39:18;96537.81;;;9.57;78.83
7802;BME280;3945;48.952;9.506;2023-04-01T07:41:49;96547.91;;;9.55;79.67
7802;BME280;3945;48.952;9.506;2023-04-01T07:44:18;96540.19;;;9.58;79.10
7802;BME280;3945;48.952;9.506;2023-04-01T07:46:55;96553.75;;;9.62;79.02
7802;BME280;3945;48.952;9.506;2023-04-01T07:49:27;96544.19;;;9.61;78.50
7802;BME280;3945;48.952;9.506;2023-04-01T07:51:56;96558.50;;;9.60;79.26
7802;BME280;3945;48.952;9.506;2023-04-01T07:54:28;96553.47;;;9.58;79.31
7802;BME280;3945;48.952;9.506;2023-04-01T07:56:59;96554.81;;;9.61;80.00
7802;BME280;3945;48.952;9.506;2023-04-01T07:59:27;96546.28;;;9.59;80.86
7802;BME280;3945;48.952;9.506;2023-04-01T08:02:00;96545.00;;;9.56;81.96
7802;BME280;3945;48.952;9.506;2023-04-01T08:04:33;96553.22;;;9.55;81.67
7802;BME280;3945;48.952;9.506;2023-04-01T08:07:05;96547.13;;;9.54;82.01
7802;BME280;3945;48.952;9.506;2023-04-01T08:09:34;96547.38;;;9.53;82.07
7802;BME280;3945;48.952;9.506;2023-04-01T08:12:08;96559.06;;;9.52;82.17
7802;BME280;3945;48.952;9.506;2023-04-01T08:14:42;96560.38;;;9.54;82.18
7802;BME280;3945;48.952;9.506;2023-04-01T08:17:14;96551.09;;;9.57;82.38
7802;BME280;3945;48.952;9.506;2023-04-01T08:19:47;96550.81;;;9.58;81.43
7802;BME280;3945;48.952;9.506;2023-04-01T08:22:18;96548.44;;;9.62;81.66
7802;BME280;3945;48.952;9.506;2023-04-01T08:24:46;96551.63;;;9.64;81.04
7802;BME280;3945;48.952;9.506;2023-04-01T08:27:16;96555.88;;;9.65;81.10
7802;BME280;3945;48.952;9.506;2023-04-01T08:29:46;96555.88;;;9.65;81.25
7802;BME280;3945;48.952;9.506;2023-04-01T08:32:18;96558.25;;;9.66;81.32
7802;BME280;3945;48.952;9.506;2023-04-01T08:34:47;96564.09;;;9.68;81.32
7802;BME280;3945;48.952;9.506;2023-04-01T08:37:17;96559.84;;;9.67;81.16
7802;BME280;3945;48.952;9.506;2023-04-01T08:39:45;96555.31;;;9.68;81.24
7802;BME280;3945;48.952;9.506;2023-04-01T08:45:10;96560.34;;;9.74;80.82
7802;BME280;3945;48.952;9.506;2023-04-01T08:50:43;96563.03;;;9.64;82.77
7802;BME280;3945;48.952;9.506;2023-04-01T08:53:17;96564.09;;;9.58;84.19
7802;BME280;3945;48.952;9.506;2023-04-01T08:55:56;96566.50;;;9.55;85.46
7802;BME280;3945;48.952;9.506;2023-04-01T08:58:32;96571.28;;;9.53;86.65
7802;BME280;3945;48.952;9.506;2023-04-01T09:01:06;96576.34;;;9.49;87.05
7802;BME280;3945;48.952;9.506;2023-04-01T09:03:37;96582.97;;;9.42;87.56
7802;BME280;3945;48.952;9.506;2023-04-01T09:06:22;96573.94;;;9.37;88.41
7802;BME280;3945;48.952;9.506;2023-04-01T09:08:52;96576.59;;;9.32;88.91
7802;BME280;3945;48.952;9.506;2023-04-01T09:11:31;96577.66;;;9.26;90.81
7802;BME280;3945;48.952;9.506;2023-04-01T09:14:04;96579.78;;;9.24;90.43
7802;BME280;3945;48.952;9.506;2023-04-01T09:16:44;96576.34;;;9.19;90.93
7802;BME280;3945;48.952;9.506;2023-04-01T09:19:20;96574.47;;;9.14;91.00
7802;BME280;3945;48.952;9.506;2023-04-01T09:21:53;96577.66;;;9.11;92.05
7802;BME280;3945;48.952;9.506;2023-04-01T09:24:34;96580.06;;;9.08;92.52
7802;BME280;3945;48.952;9.506;2023-04-01T09:27:05;96581.91;;;9.07;92.74
7802;BME280;3945;48.952;9.506;2023-04-01T09:29:53;96575.25;;;9.05;93.96
7802;BME280;3945;48.952;9.506;2023-04-01T09:35:07;96580.31;;;9.06;94.17
7802;BME280;3945;48.952;9.506;2023-04-01T09:37:52;96574.75;;;9.08;94.64
7802;BME280;3945;48.952;9.506;2023-04-01T09:40:21;96576.06;;;9.10;94.17
7802;BME280;3945;48.952;9.506;2023-04-01T09:42:59;96579.00;;;9.14;94.96
7802;BME280;3945;48.952;9.506;2023-04-01T09:45:30;96577.13;;;9.09;93.63
7802;BME280;3945;48.952;9.506;2023-04-01T09:48:07;96580.06;;;9.13;93.88
7802;BME280;3945;48.952;9.506;2023-04-01T09:50:41;96582.16;;;9.11;93.38
7802;BME280;3945;48.952;9.506;2023-04-01T09:53:17;96586.66;;;9.10;92.77
7802;BME280;3945;48.952;9.506;2023-04-01T09:56:01;96590.38;;;9.09;93.83
7802;BME280;3945;48.952;9.506;2023-04-01T10:01:36;96586.66;;;9.10;91.92
7802;BME280;3945;48.952;9.506;2023-04-01T10:09:42;96591.44;;;9.08;93.75
7802;BME280;3945;48.952;9.506;2023-04-01T10:15:28;96599.69;;;9.17;94.60
7802;BME280;3945;48.952;9.506;2023-04-01T10:18:05;96594.41;;;9.22;94.16
7802;BME280;3945;48.952;9.506;2023-04-01T10:20:41;96597.56;;;9.24;93.55
7802;BME280;3945;48.952;9.506;2023-04-01T10:23:17;96592.81;;;9.21;92.47
7802;BME280;3945;48.952;9.506;2023-04-01T10:26:10;96593.56;;;9.16;92.13
7802;BME280;3945;48.952;9.506;2023-04-01T10:28:58;96593.84;;;9.15;93.62
7802;BME280;3945;48.952;9.506;2023-04-01T10:31:34;96597.81;;;9.17;94.15
7802;BME280;3945;48.952;9.506;2023-04-01T10:34:13;96599.69;;;9.22;93.80
7802;BME280;3945;48.952;9.506;2023-04-01T10:36:50;96598.34;;;9.24;93.44
7802;BME280;3945;48.952;9.506;2023-04-01T10:45:08;96601.56;;;9.26;91.57
7802;BME280;3945;48.952;9.506;2023-04-01T10:47:50;96605.25;;;9.25;91.22
7802;BME280;3945;48.952;9.506;2023-04-01T10:50:36;96593.84;;;9.25;91.80
7802;BME280;3945;48.952;9.506;2023-04-01T10:53:15;96602.06;;;9.23;92.42
7802;BME280;3945;48.952;9.506;2023-04-01T10:55:59;96606.56;;;9.23;93.23
7802;BME280;3945;48.952;9.506;2023-04-01T10:58:41;96598.91;;;9.26;92.32
7802;BME280;3945;48.952;9.506;2023-04-01T11:01:26;96603.13;;;9.22;92.78
7802;BME280;3945;48.952;9.506;2023-04-01T11:04:03;96601.00;;;9.24;92.04
7802;BME280;3945;48.952;9.506;2023-04-01T11:06:48;96609.50;;;9.26;91.57
7802;BME280;3945;48.952;9.506;2023-04-01T11:15:15;96604.22;;;9.26;92.14
7802;BME280;3945;48.952;9.506;2023-04-01T11:23:23;96613.75;;;9.22;91.56
7802;BME280;3945;48.952;9.506;2023-04-01T11:26:00;96610.31;;;9.27;90.85
7802;BME280;3945;48.952;9.506;2023-04-01T11:31:35;96610.56;;;9.25;93.29
7802;BME280;3945;48.952;9.506;2023-04-01T11:34:05;96616.13;;;9.24;92.76
7802;BME280;3945;48.952;9.506;2023-04-01T11:36:37;96609.50;;;9.26;93.45
7802;BME280;3945;48.952;9.506;2023-04-01T11:39:13;96612.97;;;9.32;92.23
7802;BME280;3945;48.952;9.506;2023-04-01T11:41:49;96615.06;;;9.30;92.59
7802;BME280;3945;48.952;9.506;2023-04-01T11:44:18;96619.63;;;9.34;92.85
7802;BME280;3945;48.952;9.506;2023-04-01T11:46:52;96619.09;;;9.43;94.18
7802;BME280;3945;48.952;9.506;2023-04-01T11:49:25;96610.06;;;9.44;93.00
7802;BME280;3945;48.952;9.506;2023-04-01T11:51:59;96615.88;;;9.46;91.71
7802;BME280;3945;48.952;9.506;2023-04-01T11:54:39;96617.47;;;9.47;92.12
7802;BME280;3945;48.952;9.506;2023-04-01T11:57:17;96616.44;;;9.48;91.87
7802;BME280;3945;48.952;9.506;2023-04-01T12:02:34;96622.28;;;9.50;90.52
7802;BME280;3945;48.952;9.506;2023-04-01T12:05:15;96621.97;;;9.51;90.62
7802;BME280;3945;48.952;9.506;2023-04-01T12:07:53;96626.78;;;9.54;89.57
7802;BME280;3945;48.952;9.506;2023-04-01T12:10:24;96628.09;;;9.52;87.92
7802;BME280;3945;48.952;9.506;2023-04-01T12:12:54;96629.69;;;9.53;88.96
7802;BME280;3945;48.952;9.506;2023-04-01T12:15:28;96632.34;;;9.53;89.29
7802;BME280;3945;48.952;9.506;2023-04-01T12:17:57;96642.19;;;9.57;89.73
7802;BME280;3945;48.952;9.506;2023-04-01T12:20:30;96635.78;;;9.58;88.80
7802;BME280;3945;48.952;9.506;2023-04-01T12:23:03;96640.59;;;9.61;88.28
7802;BME280;3945;48.952;9.506;2023-04-01T12:25:38;96642.97;;;9.63;88.47
7802;BME280;3945;48.952;9.506;2023-04-01T12:28:14;96648.56;;;9.61;89.70
7802;BME280;3945;48.952;9.506;2023-04-01T12:30:53;96650.16;;;9.62;90.31
7802;BME280;3945;48.952;9.506;2023-04-01T12:33:36;96642.97;;;9.63;91.90
7802;BME280;3945;48.952;9.506;2023-04-01T12:36:13;96638.97;;;9.60;91.48
7802;BME280;3945;48.952;9.506;2023-04-01T12:38:47;96642.97;;;9.63;91.67
7802;BME280;3945;48.952;9.506;2023-04-01T12:41:21;96641.13;;;9.63;92.00
7802;BME280;3945;48.952;9.506;2023-04-01T12:46:56;96648.81;;;9.60;90.41
7802;BME280;3945;48.952;9.506;2023-04-01T12:49:30;96644.31;;;9.60;92.23
7802;BME280;3945;48.952;9.506;2023-04-01T12:52:03;96642.72;;;9.64;93.29
7802;BME280;3945;48.952;9.506;2023-04-01T12:57:26;96645.38;;;9.69;92.39
7802;BME280;3945;48.952;9.506;2023-04-01T13:00:09;96642.16;;;9.67;92.38
7802;BME280;3945;48.952;9.506;2023-04-01T13:02:40;96649.59;;;9.65;92.84
7802;BME280;3945;48.952;9.506;2023-04-01T13:05:19;96654.41;;;9.68;92.17
7802;BME280;3945;48.952;9.506;2023-04-01T13:08:06;96649.88;;;9.64;91.76
7802;BME280;3945;48.952;9.506;2023-04-01T13:10:42;96648.03;;;9.64;92.51
7802;BME280;3945;48.952;9.506;2023-04-01T13:13:15;96654.16;;;9.65;91.39
7802;BME280;3945;48.952;9.506;2023-04-01T13:15:46;96650.69;;;9.64;90.50
7802;BME280;3945;48.952;9.506;2023-04-01T13:18:20;96651.75;;;9.63;89.80
7802;BME280;3945;48.952;9.506;2023-04-01T13:20:49;96659.44;;;9.60;90.53
7802;BME280;3945;48.952;9.506;2023-04-01T13:23:24;96671.41;;;9.62;89.26
7802;BME280;3945;48.952;9.506;2023-04-01T13:26:00;96675.91;;;9.57;89.26
7802;BME280;3945;48.952;9.506;2023-04-01T13:28:30;96675.63;;;9.53;90.63
7802;BME280;3945;48.952;9.506;2023-04-01T13:30:59;96673.22;;;9.52;91.19
7802;BME280;3945;48.952;9.506;2023-04-01T13:33:30;96680.69;;;9.50;92.12
7802;BME280;3945;48.952;9.506;2023-04-01T13:36:04;96681.75;;;9.49;92.30
7802;BME280;3945;48.952;9.506;2023-04-01T13:41:22;96685.19;;;9.44;91.91
7802;BME280;3945;48.952;9.506;2023-04-01T13:43:55;96682.25;;;9.40;93.09
7802;BME280;3945;48.952;9.506;2023-04-01T13:52:06;96686.50;;;9.36;93.53
7802;BME280;3945;48.952;9.506;2023-04-01T13:57:22;96699.50;;;9.33;93.75
7802;BME280;3945;48.952;9.506;2023-04-01T14:00:02;96702.69;;;9.30;94.05
7802;BME280;3945;48.952;9.506;2023-04-01T14:02:35;96698.16;;;9.30;93.57
7802;BME280;3945;48.952;9.506;2023-04-01T14:05:19;96698.44;;;9.29;93.91
7802;BME280;3945;48.952;9.506;2023-04-01T14:07:55;96706.38;;;9.24;94.32
7802;BME280;3945;48.952;9.506;2023-04-01T14:10:28;96705.06;;;9.21;94.87
7802;BME280;3945;48.952;9.506;2023-04-01T14:12:58;96700.56;;;9.22;94.79
7802;BME280;3945;48.952;9.506;2023-04-01T14:15:33;96704.53;;;9.24;94.40
7802;BME280;3945;48.952;9.506;2023-04-01T14:18:13;96705.88;;;9.22;94.43
7802;BME280;3945;48.952;9.506;2023-04-01T14:20:45;96714.88;;;9.26;94.42
7802;BME280;3945;48.952;9.506;2023-04-01T14:23:31;96714.09;;;9.25;94.15
7802;BME280;3945;48.952;9.506;2023-04-01T14:26:10;96717.81;;;9.24;94.56
7802;BME280;3945;48.952;9.506;2023-04-01T14:28:43;96721.81;;;9.27;94.01
7802;BME280;3945;48.952;9.506;2023-04-01T14:34:03;96726.56;;;9.25;94.66
7802;BME280;3945;48.952;9.506;2023-04-01T14:36:43;96723.09;;;9.24;95.26
7802;BME280;3945;48.952;9.506;2023-04-01T14:42:02;96721.78;;;9.22;94.80
7802;BME280;3945;48.952;9.506;2023-04-01T14:44:40;96737.44;;;9.23;95.40
7802;BME280;3945;48.952;9.506;2023-04-01T14:47:21;96725.50;;;9.21;94.15
7802;BME280;3945;48.952;9.506;2023-04-01T14:49:51;96727.63;;;9.19;94.25
7802;BME280;3945;48.952;9.506;2023-04-01T14:52:22;96724.69;;;9.20;94.72
7802;BME280;3945;48.952;9.506;2023-04-01T14:54:50;96732.91;;;9.19;94.33
7802;BME280;3945;48.952;9.506;2023-04-01T14:57:22;96734.78;;;9.18;94.89
7802;BME280;3945;48.952;9.506;2023-04-01T14:59:51;96730.25;;;9.19;95.35
7802;BME280;3945;48.952;9.506;2023-04-01T15:02:24;96722.06;;;9.20;95.83
7802;BME280;3945;48.952;9.506;2023-04-01T15:05:00;96733.19;;;9.22;95.55